Time;durP1;ratioP1;P1;durP2;ratioP2;P2;SDS_P1;SDS_P2;PMS_P1;PMS_P2;Temp;Humidity;BMP_temperature;BMP_pressure;BME280_temperature;BME280_humidity;BME280_pressure;Samples;Min_cycle;Max_cycle;Signal;HPM_P1;HPM_P2
2023/04/06 00:00:23;;;;;;;;;21.33;15.33;;;;;13.95;33.52;101436.88;4979769;28;45478;-47
2023/04/06 00:02:49;;;;;;;;;19.33;15.33;;;;;13.93;34.15;101436.16;4997237;28;45375;-45
2023/04/06 00:05:14;;;;;;;;;26.67;22.33;;;;;13.91;34.13;101439.00;4997225;28;45262;-48
2023/04/06 00:07:40;;;;;;;;;21.33;19.00;;;;;13.95;33.90;101432.34;4997563;28;45284;-45
2023/04/06 00:10:06;;;;;;;;;21.33;20.00;;;;;13.95;34.33;101429.69;4979906;28;45239;-45
2023/04/06 00:12:31;;;;;;;;;26.67;22.33;;;;;13.93;34.32;101426.28;4997011;28;45362;-46
2023/04/06 00:14:57;;;;;;;;;24.00;24.00;;;;;13.94;34.91;101429.81;4997226;28;45294;-47
2023/04/06 00:17:22;;;;;;;;;22.00;18.00;;;;;13.91;34.55;101422.13;4997026;28;45372;-47
2023/04/06 00:19:47;;;;;;;;;26.00;20.67;;;;;13.92;34.71;101426.47;4997537;28;45390;-47
2023/04/06 00:22:13;;;;;;;;;32.67;20.00;;;;;13.95;35.17;101420.81;4997443;28;45514;-48
2023/04/06 00:24:38;;;;;;;;;26.00;18.33;;;;;13.95;35.24;101428.84;4996957;28;45482;-47
2023/04/06 00:27:04;;;;;;;;;27.67;21.33;;;;;13.94;34.92;101429.81;4997455;28;45670;-48
2023/04/06 00:29:30;;;;;;;;;28.00;22.33;;;;;13.93;35.41;101426.28;4997418;28;45258;-45
2023/04/06 00:31:55;;;;;;;;;27.67;21.33;;;;;13.93;35.40;101426.28;4996840;28;46125;-47
2023/04/06 00:34:20;;;;;;;;;30.00;24.33;;;;;13.93;36.11;101420.13;4998639;28;45397;-47
2023/04/06 00:36:46;;;;;;;;;26.67;21.33;;;;;13.84;35.91;101402.31;5000623;28;45403;-48
2023/04/06 00:39:11;;;;;;;;;21.33;18.33;;;;;13.79;35.92;101396.59;5000857;28;45323;-45
2023/04/06 00:41:37;;;;;;;;;25.33;19.67;;;;;13.90;35.76;101415.06;5000270;28;45780;-46
2023/04/06 00:44:02;;;;;;;;;27.33;22.67;;;;;13.91;36.22;101414.09;4999981;28;45322;-47
2023/04/06 00:46:28;;;;;;;;;22.67;19.67;;;;;13.92;36.46;101413.09;5000301;28;45427;-54
2023/04/06 00:48:53;;;;;;;;;23.00;19.00;;;;;13.91;36.62;101406.91;5000463;28;45294;-45
2023/04/06 00:51:19;;;;;;;;;28.67;20.33;;;;;13.91;36.63;101398.88;5000519;28;45347;-47
2023/04/06 00:53:44;;;;;;;;;20.67;18.67;;;;;13.83;36.78;101384.59;5000340;28;45267;-45
2023/04/06 00:56:10;;;;;;;;;26.33;20.00;;;;;13.90;36.96;101399.00;5000611;28;45303;-46
2023/04/06 00:58:38;;;;;;;;;24.00;21.67;;;;;13.90;37.04;101399.84;5000540;28;45478;-46
2023/04/06 01:01:04;;;;;;;;;24.33;20.33;;;;;13.87;37.55;101383.28;5000072;28;46125;-47
2023/04/06 01:03:29;;;;;;;;;23.00;20.00;;;;;13.87;37.65;101394.00;5000088;28;45816;-45
2023/04/06 01:05:58;;;;;;;;;21.00;17.00;;;;;13.87;37.65;101400.19;5000109;28;45315;-47
2023/04/06 01:08:24;;;;;;;;;22.33;18.67;;;;;13.86;37.47;101389.59;5000358;28;45385;-46
2023/04/06 01:10:49;;;;;;;;;23.00;19.00;;;;;13.83;37.67;101390.78;4999886;28;45963;-46
2023/04/06 01:13:15;;;;;;;;;27.33;24.00;;;;;13.83;38.28;101381.91;5000097;28;45363;-44
2023/04/06 01:15:41;;;;;;;;;21.33;18.67;;;;;13.82;38.17;101380.22;5000031;28;45199;-46
2023/04/06 01:18:10;;;;;;;;;21.00;20.33;;;;;13.71;38.47;101362.56;4999899;28;45578;-48
2023/04/06 01:20:35;;;;;;;;;29.00;22.67;;;;;13.77;38.45;101369.13;4999428;28;47048;-46
2023/04/06 01:23:01;;;;;;;;;27.00;20.00;;;;;13.77;38.82;101371.81;4999858;28;45480;-47
2023/04/06 01:25:26;;;;;;;;;22.00;17.00;;;;;13.75;38.46;101373.81;4999762;28;45528;-46
2023/04/06 01:27:52;;;;;;;;;28.67;15.33;;;;;13.72;38.89;101370.44;5000004;28;45303;-50
2023/04/06 01:30:17;;;;;;;;;23.00;17.00;;;;;13.71;38.89;101368.75;4999718;28;45402;-47
2023/04/06 01:32:43;;;;;;;;;29.67;22.33;;;;;13.68;39.03;101362.88;4999454;28;45176;-46
2023/04/06 01:35:09;;;;;;;;;25.67;20.33;;;;;13.67;39.35;101364.69;4999745;28;45317;-47
2023/04/06 01:37:35;;;;;;;;;23.67;21.33;;;;;13.68;39.18;101366.38;4999722;28;45401;-46
2023/04/06 01:40:00;;;;;;;;;26.00;21.33;;;;;13.68;39.17;101373.56;4999222;28;47138;-48
2023/04/06 01:42:26;;;;;;;;;33.67;22.67;;;;;13.66;39.86;101360.34;4999313;28;45491;-48
2023/04/06 01:44:52;;;;;;;;;27.00;21.00;;;;;13.68;39.59;101360.19;4999098;28;45889;-47
2023/04/06 01:47:18;;;;;;;;;25.00;19.00;;;;;13.65;39.84;101355.13;4981371;28;45388;-48
2023/04/06 01:49:43;;;;;;;;;29.00;24.33;;;;;13.63;39.91;101352.63;4999213;28;46066;-45
2023/04/06 01:52:09;;;;;;;;;29.33;20.00;;;;;13.63;40.19;101347.28;4999368;28;45333;-47
2023/04/06 01:54:34;;;;;;;;;28.67;24.33;;;;;13.60;40.28;101352.94;4999238;28;45298;-45
2023/04/06 01:57:00;;;;;;;;;28.00;20.00;;;;;13.56;40.64;101343.53;4999458;28;45337;-48
2023/04/06 01:59:25;;;;;;;;;21.00;17.67;;;;;13.57;40.37;101342.56;4999266;28;46288;-45
2023/04/06 02:01:50;;;;;;;;;30.00;20.00;;;;;13.53;40.43;101333.16;4998913;28;45475;-46
2023/04/06 02:04:16;;;;;;;;;23.67;22.33;;;;;13.53;40.98;101338.50;4999088;28;45380;-46
2023/04/06 02:06:41;;;;;;;;;23.33;18.33;;;;;13.50;40.83;101346.81;4999172;28;45470;-48
2023/04/06 02:09:07;;;;;;;;;27.00;21.00;;;;;13.49;41.15;101358.50;4998758;28;45859;-48
2023/04/06 02:11:32;;;;;;;;;28.33;21.00;;;;;13.41;40.75;101353.06;4999178;28;45251;-44
2023/04/06 02:14:00;;;;;;;;;26.67;21.33;;;;;13.39;41.23;101353.19;4999390;28;45445;-47
2023/04/06 02:16:25;;;;;;;;;25.00;23.33;;;;;13.37;41.65;101355.19;4999098;28;45426;-44
2023/04/06 02:18:51;;;;;;;;;31.25;24.00;;;;;13.30;42.07;101346.09;4998436;28;45492;-44
2023/04/06 02:21:19;;;;;;;;;27.50;23.25;;;;;13.28;41.77;101337.41;4980971;28;45858;-46
2023/04/06 02:23:45;;;;;;;;;29.00;24.50;;;;;13.19;41.85;101327.59;4998984;28;45422;-47
2023/04/06 02:26:10;;;;;;;;;31.00;28.00;;;;;13.31;42.30;101344.25;4998961;28;45477;-49
2023/04/06 02:28:36;;;;;;;;;25.67;20.67;;;;;13.27;42.18;101340.19;4998555;28;46200;-48
2023/04/06 02:31:01;;;;;;;;;26.33;23.00;;;;;13.31;42.52;101338.91;4998855;28;45374;-45
2023/04/06 02:33:27;;;;;;;;;36.00;24.00;;;;;13.31;42.08;101339.75;4998702;28;45844;-44
2023/04/06 02:35:52;;;;;;;;;34.33;21.33;;;;;12.93;42.78;101264.16;4999008;28;45383;-47
2023/04/06 02:38:17;;;;;;;;;34.50;25.75;;;;;13.31;42.91;101326.38;4998498;28;45361;-47
2023/04/06 02:40:43;;;;;;;;;26.67;24.33;;;;;13.31;42.97;101328.22;4998213;28;45451;-48
2023/04/06 02:43:08;;;;;;;;;26.75;24.00;;;;;13.30;42.77;101318.53;4998423;28;45352;-48
2023/04/06 02:45:34;;;;;;;;;31.00;23.00;;;;;13.29;42.93;101322.19;4998593;28;45258;-45
2023/04/06 02:47:59;;;;;;;;;35.25;25.75;;;;;13.28;42.94;101320.53;4998188;28;45952;-47
2023/04/06 02:50:25;;;;;;;;;24.33;20.67;;;;;13.13;43.43;101294.28;4998213;28;45413;-48
2023/04/06 02:52:52;;;;;;;;;31.00;24.33;;;;;13.20;42.72;101306.06;4998353;28;45296;-47
2023/04/06 02:55:19;;;;;;;;;30.00;24.67;;;;;13.22;43.50;101309.44;4998507;28;45442;-47
2023/04/06 02:57:44;;;;;;;;;22.67;20.33;;;;;13.19;42.89;101301.69;4996848;28;45460;-48
2023/04/06 03:00:11;;;;;;;;;31.00;21.67;;;;;13.14;43.20;101295.09;4998119;28;45311;-44
2023/04/06 03:02:36;;;;;;;;;29.33;22.67;;;;;13.20;42.95;101318.56;4980331;28;45375;-45
2023/04/06 03:05:03;;;;;;;;;29.00;24.00;;;;;13.20;42.47;101329.25;4998180;28;45361;-46
2023/04/06 03:07:28;;;;;;;;;31.33;23.00;;;;;13.05;42.75;101315.53;4997967;28;46228;-47
2023/04/06 03:09:54;;;;;;;;;29.25;24.00;;;;;13.15;42.65;101334.22;4997873;28;45152;-48
2023/04/06 03:12:20;;;;;;;;;29.33;22.00;;;;;13.10;43.14;101323.09;4998130;28;45250;-46
2023/04/06 03:14:45;;;;;;;;;34.33;24.67;;;;;13.12;43.44;101321.97;4998334;28;45485;-46
2023/04/06 03:17:10;;;;;;;;;30.67;20.00;;;;;13.12;43.10;101327.31;4997934;28;45431;-47
2023/04/06 03:19:36;;;;;;;;;29.00;24.00;;;;;13.11;42.65;101333.66;4997915;28;45375;-46
2023/04/06 03:22:01;;;;;;;;;26.33;21.67;;;;;13.12;42.40;101319.31;4998009;28;45499;-47
2023/04/06 03:24:27;;;;;;;;;21.33;19.33;;;;;13.12;43.03;101302.44;4997974;28;45699;-47
2023/04/06 03:26:52;;;;;;;;;27.33;21.00;;;;;13.12;43.22;101310.47;4997530;28;46247;-47
2023/04/06 03:29:18;;;;;;;;;32.67;22.67;;;;;13.09;42.50;101308.91;4997549;28;45320;-47
2023/04/06 03:31:43;;;;;;;;;21.25;21.00;;;;;13.13;42.82;101309.47;4997655;28;45720;-47
2023/04/06 03:34:09;;;;;;;;;22.00;17.67;;;;;13.14;42.85;101311.97;4997704;28;45418;-46
2023/04/06 03:36:35;;;;;;;;;26.25;22.50;;;;;13.16;43.00;101325.19;4997416;28;45510;-48
2023/04/06 03:39:00;;;;;;;;;16.00;15.33;;;;;13.16;42.78;101323.38;4997440;28;45241;-45
2023/04/06 03:41:26;;;;;;;;;23.67;20.00;;;;;13.18;42.62;101318.69;4997342;28;45353;-47
2023/04/06 03:43:52;;;;;;;;;32.33;22.00;;;;;13.19;43.24;101311.56;4997654;28;45374;-47
2023/04/06 03:46:17;;;;;;;;;25.33;19.33;;;;;13.19;42.71;101309.72;4997254;28;45664;-46
2023/04/06 03:48:42;;;;;;;;;26.00;22.00;;;;;13.19;42.83;101304.38;4997375;28;45482;-46
2023/04/06 03:51:08;;;;;;;;;28.67;23.33;;;;;13.21;42.57;101314.91;4997511;28;45537;-46
2023/04/06 03:53:33;;;;;;;;;23.33;19.00;;;;;13.21;42.17;101307.72;4997669;28;45238;-48
2023/04/06 03:55:59;;;;;;;;;26.67;18.00;;;;;13.21;41.94;101312.22;4997381;28;45469;-46
2023/04/06 03:58:24;;;;;;;;;26.00;21.00;;;;;13.20;42.34;101313.22;4997233;28;45396;-47
2023/04/06 04:00:49;;;;;;;;;27.00;23.33;;;;;13.19;42.23;101308.88;4997296;28;45307;-46
2023/04/06 04:03:15;;;;;;;;;17.67;16.67;;;;;13.13;42.73;101299.63;4997483;28;45465;-45
2023/04/06 04:05:40;;;;;;;;;23.33;21.00;;;;;13.15;42.56;101305.66;4996972;28;45254;-46
2023/04/06 04:08:06;;;;;;;;;29.67;20.67;;;;;13.16;42.58;101310.00;4996702;28;45378;-46
2023/04/06 04:10:31;;;;;;;;;25.00;22.00;;;;;13.18;42.77;101308.00;4996935;28;45323;-46
2023/04/06 04:12:56;;;;;;;;;25.67;18.33;;;;;13.16;42.85;101310.00;4997406;28;45331;-46
2023/04/06 04:15:22;;;;;;;;;21.33;17.67;;;;;13.11;42.75;101293.59;4996951;28;45428;-45
2023/04/06 04:17:49;;;;;;;;;23.33;20.33;;;;;13.14;42.63;101314.66;4997001;28;45345;-47
2023/04/06 04:20:16;;;;;;;;;23.33;20.67;;;;;13.13;42.82;101312.97;4996946;28;45359;-44
2023/04/06 04:22:41;;;;;;;;;20.67;20.33;;;;;13.15;43.00;101307.50;4997105;28;45400;-47
2023/04/06 04:25:07;;;;;;;;;22.00;18.00;;;;;13.14;42.79;101308.47;4996797;28;46185;-46
2023/04/06 04:27:32;;;;;;;;;27.67;22.00;;;;;13.12;42.88;101302.44;4996841;28;45398;-45
2023/04/06 04:29:58;;;;;;;;;21.67;20.00;;;;;13.11;42.94;101295.44;4997225;28;45318;-47
2023/04/06 04:32:27;;;;;;;;;27.33;24.33;;;;;13.05;42.91;101302.19;4997366;28;45460;-47
2023/04/06 04:34:53;;;;;;;;;23.67;19.67;;;;;13.03;43.36;101298.84;4996664;28;46948;-46
2023/04/06 04:37:18;;;;;;;;;26.00;19.33;;;;;13.01;43.77;101290.13;4996674;28;45501;-46
2023/04/06 04:39:45;;;;;;;;;30.33;22.00;;;;;12.97;43.64;101286.06;4995423;28;45313;-45
2023/04/06 04:42:10;;;;;;;;;29.00;19.67;;;;;13.01;43.02;101290.13;4996636;28;45392;-46
2023/04/06 04:44:36;;;;;;;;;27.00;19.67;;;;;12.88;42.82;101273.63;4996578;28;47150;-48
2023/04/06 04:47:01;;;;;;;;;30.33;23.67;;;;;13.00;43.03;101293.78;4996586;28;45308;-46
2023/04/06 04:49:26;;;;;;;;;30.00;23.00;;;;;13.01;43.14;101295.47;4996651;28;45311;-47
2023/04/06 04:51:52;;;;;;;;;24.00;19.67;;;;;13.00;43.40;101299.13;4996969;28;45266;-49
2023/04/06 04:54:18;;;;;;;;;19.00;18.00;;;;;12.99;42.80;101303.63;4996379;28;46308;-44
2023/04/06 04:56:44;;;;;;;;;30.33;22.67;;;;;13.01;43.08;101300.81;4996512;28;45230;-45
2023/04/06 04:59:10;;;;;;;;;23.33;22.00;;;;;13.02;42.90;101307.84;4996380;28;45326;-47
2023/04/06 05:01:35;;;;;;;;;21.33;19.00;;;;;13.06;43.55;101311.03;4996690;28;45266;-46
2023/04/06 05:04:01;;;;;;;;;23.33;20.33;;;;;13.06;43.45;101321.72;4996500;28;47518;-48
2023/04/06 05:06:26;;;;;;;;;22.33;19.33;;;;;13.08;42.96;101327.78;4996498;28;45245;-48
2023/04/06 05:08:51;;;;;;;;;26.00;23.67;;;;;13.06;43.68;101319.91;4996602;28;45386;-46
2023/04/06 05:11:17;;;;;;;;;37.00;28.25;;;;;13.09;43.60;101319.59;4996704;28;45648;-48
2023/04/06 05:13:42;;;;;;;;;29.00;24.00;;;;;13.10;43.52;101320.44;4996502;28;46301;-50
2023/04/06 05:16:08;;;;;;;;;25.50;24.25;;;;;13.10;43.50;101321.28;4996310;28;45435;-46
2023/04/06 05:18:33;;;;;;;;;20.67;19.00;;;;;13.12;42.59;101321.16;4996288;28;45890;-48
2023/04/06 05:20:59;;;;;;;;;28.00;19.67;;;;;13.05;42.57;101323.56;4997251;28;45416;-48
2023/04/06 05:23:24;;;;;;;;;23.00;20.33;;;;;13.10;42.69;101326.63;4999453;28;45337;-48
2023/04/06 05:25:50;;;;;;;;;27.00;22.00;;;;;13.11;42.97;101333.66;4999601;28;45319;-47
2023/04/06 05:28:16;;;;;;;;;24.33;18.67;;;;;13.09;43.31;101332.97;4999480;28;45358;-44
2023/04/06 05:30:44;;;;;;;;;31.00;21.00;;;;;13.09;43.05;101329.44;4999709;28;45425;-44
2023/04/06 05:33:10;;;;;;;;;24.67;19.00;;;;;13.10;43.00;101341.81;4999428;28;46231;-46
2023/04/06 05:35:36;;;;;;;;;33.75;23.50;;;;;13.08;42.84;101333.94;4998962;28;45448;-45
2023/04/06 05:38:01;;;;;;;;;34.00;22.67;;;;;13.09;43.24;101335.63;4999495;28;45800;-44
2023/04/06 05:40:27;;;;;;;;;27.33;21.33;;;;;13.06;43.67;101325.25;4999417;28;45435;-47
2023/04/06 05:42:52;;;;;;;;;26.67;21.67;;;;;13.09;43.51;101340.97;4998987;28;45436;-46
2023/04/06 05:45:18;;;;;;;;;28.00;19.33;;;;;13.08;43.29;101333.13;4999591;28;45386;-45
2023/04/06 05:47:44;;;;;;;;;26.00;20.67;;;;;13.02;43.49;101334.56;4999495;28;45402;-46
2023/04/06 05:50:15;;;;;;;;;25.33;21.33;;;;;13.05;43.29;101344.09;4999625;28;45575;-48
2023/04/06 05:52:46;;;;;;;;;27.00;22.50;;;;;13.01;44.33;101342.69;4999009;28;45346;-46
2023/04/06 05:55:11;;;;;;;;;29.67;22.00;;;;;12.99;44.14;101343.69;4998923;28;45336;-44
2023/04/06 05:57:37;;;;;;;;;26.50;22.50;;;;;12.98;44.55;101342.03;4999322;28;45412;-46
2023/04/06 06:00:06;;;;;;;;;26.67;22.00;;;;;12.95;44.33;101339.63;4999283;28;45540;-46
2023/04/06 06:02:31;;;;;;;;;23.67;18.33;;;;;12.94;44.46;101337.97;4998901;28;46324;-45
2023/04/06 06:04:57;;;;;;;;;22.00;19.00;;;;;12.92;44.86;101353.28;4998019;28;45469;-48
2023/04/06 06:07:23;;;;;;;;;23.25;19.50;;;;;12.89;45.16;101344.72;4998846;28;45453;-49
2023/04/06 06:09:48;;;;;;;;;30.33;24.00;;;;;12.90;45.48;101349.09;4999142;28;45341;-47
2023/04/06 06:12:14;;;;;;;;;20.25;18.50;;;;;12.90;45.10;101346.41;4998729;28;45409;-46
2023/04/06 06:14:39;;;;;;;;;26.25;21.00;;;;;12.90;45.60;101346.41;4998628;28;45436;-48
2023/04/06 06:17:05;;;;;;;;;26.50;24.25;;;;;12.85;45.85;101344.19;4999000;28;45302;-46
2023/04/06 06:19:30;;;;;;;;;29.00;20.75;;;;;12.74;46.61;101323.84;4998814;28;45445;-47
2023/04/06 06:21:55;;;;;;;;;26.75;18.75;;;;;12.87;45.29;101346.69;4998520;28;46086;-47
2023/04/06 06:24:21;;;;;;;;;23.33;21.00;;;;;12.91;45.81;101345.44;4998598;28;45357;-48
2023/04/06 06:26:48;;;;;;;;;28.75;20.75;;;;;12.91;45.82;101345.44;4998658;28;45439;-45
2023/04/06 06:29:14;;;;;;;;;39.50;26.00;;;;;12.85;46.22;101341.53;4981257;28;45612;-44
2023/04/06 06:31:40;;;;;;;;;26.75;19.50;;;;;12.86;47.75;101343.19;4997820;28;46971;-48
2023/04/06 06:34:05;;;;;;;;;22.33;20.67;;;;;12.86;47.44;101342.38;4998426;28;45336;-44
2023/04/06 06:36:31;;;;;;;;;28.50;20.25;;;;;12.86;47.40;101340.53;4998330;28;45438;-48
2023/04/06 06:38:58;;;;;;;;;25.00;21.67;;;;;12.84;47.17;101337.16;4998549;28;45434;-46
2023/04/06 06:41:24;;;;;;;;;18.67;17.00;;;;;12.84;46.68;101326.47;4998134;28;47107;-49
2023/04/06 06:43:50;;;;;;;;;32.25;22.00;;;;;12.90;47.01;101336.56;4980556;28;45399;-46
2023/04/06 06:46:15;;;;;;;;;25.00;22.50;;;;;12.95;47.12;101336.13;4998345;28;45352;-44
2023/04/06 06:48:40;;;;;;;;;28.50;23.00;;;;;12.99;47.20;101333.00;4998542;28;45225;-48
2023/04/06 06:51:06;;;;;;;;;27.00;24.00;;;;;13.01;46.93;101340.88;4997628;28;46025;-45
2023/04/06 06:53:31;;;;;;;;;28.25;20.75;;;;;13.06;47.38;101335.94;4996429;28;45556;-45
2023/04/06 06:55:57;;;;;;;;;30.00;24.25;;;;;13.07;46.97;101339.47;4994775;28;45488;-46
2023/04/06 06:58:22;;;;;;;;;24.50;21.25;;;;;13.10;46.96;101333.78;4977041;28;45421;-48
2023/04/06 07:00:48;;;;;;;;;32.00;24.00;;;;;13.07;48.07;101332.28;4994514;28;45811;-47
2023/04/06 07:03:13;;;;;;;;;29.50;25.00;;;;;13.05;47.74;101328.91;4994853;28;45203;-48
2023/04/06 07:05:44;;;;;;;;;29.75;22.75;;;;;13.02;47.79;101334.56;4994838;28;45281;-47
2023/04/06 07:08:10;;;;;;;;;23.33;20.33;;;;;12.92;47.54;101329.25;4994691;28;45285;-48
2023/04/06 07:10:35;;;;;;;;;24.67;19.00;;;;;12.81;48.55;101334.78;4994543;28;46154;-50
2023/04/06 07:13:00;;;;;;;;;24.50;18.50;;;;;12.75;48.64;101338.03;4994792;28;45860;-47
2023/04/06 07:15:26;;;;;;;;;23.33;19.00;;;;;12.69;48.65;101333.28;4994835;28;46162;-47
2023/04/06 07:17:52;;;;;;;;;23.75;18.75;;;;;12.69;49.81;101338.63;4995098;28;45454;-47
2023/04/06 07:20:17;;;;;;;;;30.25;26.00;;;;;12.71;49.08;101332.13;4993778;28;45335;-46
2023/04/06 07:22:46;;;;;;;;;30.75;22.75;;;;;12.69;49.31;101331.47;4993673;28;45467;-46
2023/04/06 07:25:11;;;;;;;;;21.25;18.25;;;;;12.71;49.56;101332.13;4994815;28;45448;-47
2023/04/06 07:27:37;;;;;;;;;29.67;21.00;;;;;12.67;49.69;101337.91;4977231;28;45467;-44
2023/04/06 07:30:03;;;;;;;;;19.33;18.00;;;;;12.65;50.20;101339.91;4994232;28;45496;-47
2023/04/06 07:32:29;;;;;;;;;25.00;20.00;;;;;12.64;49.83;101331.06;4993121;28;45344;-48
2023/04/06 07:34:56;;;;;;;;;24.25;17.50;;;;;12.60;49.69;101337.69;4994224;28;45460;-46
2023/04/06 07:37:21;;;;;;;;;25.75;20.00;;;;;12.60;50.83;101323.47;4994069;28;45547;-47
2023/04/06 07:39:47;;;;;;;;;24.50;19.50;;;;;12.64;50.92;101323.06;4993953;28;45966;-47
2023/04/06 07:42:12;;;;;;;;;23.00;18.00;;;;;12.65;51.09;101346.09;4994208;28;45512;-45
2023/04/06 07:44:38;;;;;;;;;23.00;19.33;;;;;12.69;52.30;101335.97;4993364;28;45519;-46
2023/04/06 07:47:03;;;;;;;;;21.33;18.33;;;;;12.68;51.12;101336.94;4994151;28;45421;-46
2023/04/06 07:49:29;;;;;;;;;27.33;23.33;;;;;12.60;51.59;101334.13;4976458;28;46174;-47
2023/04/06 07:51:56;;;;;;;;;19.67;15.67;;;;;12.60;53.35;101339.47;4993342;28;45479;-45
2023/04/06 07:54:21;;;;;;;;;20.00;19.67;;;;;12.61;53.69;101342.03;4994060;28;45458;-45
2023/04/06 07:56:46;;;;;;;;;23.33;19.67;;;;;12.61;54.23;101334.00;4994234;28;45389;-46
2023/04/06 07:59:13;;;;;;;;;25.75;19.75;;;;;12.71;54.41;101337.47;4994011;28;45390;-47
2023/04/06 08:01:39;;;;;;;;;29.25;24.50;;;;;12.82;53.86;101333.81;4993773;28;45448;-46
2023/04/06 08:04:04;;;;;;;;;36.25;23.25;;;;;12.85;54.83;101328.16;4959683;28;45463;-48
2023/04/06 08:06:30;;;;;;;;;22.50;21.25;;;;;12.90;54.85;101333.91;4994033;28;45473;-46
2023/04/06 08:08:55;;;;;;;;;24.67;20.00;;;;;12.93;54.45;101333.59;4993920;28;45967;-50
2023/04/06 08:11:21;;;;;;;;;25.75;22.25;;;;;12.96;52.67;101335.13;4993747;28;45520;-48
2023/04/06 08:13:46;;;;;;;;;30.50;25.25;;;;;12.97;54.50;101334.13;4993685;28;45464;-46
2023/04/06 08:16:12;;;;;;;;;32.50;22.00;;;;;12.97;54.88;101326.97;4994020;28;45555;-54
2023/04/06 08:18:37;;;;;;;;;26.33;24.33;;;;;13.18;54.63;101336.56;4993874;28;45638;-46
2023/04/06 08:21:03;;;;;;;;;29.33;26.00;;;;;13.37;54.62;101332.97;4993726;28;45540;-48
2023/04/06 08:23:28;;;;;;;;;27.67;20.00;;;;;13.47;54.12;101328.41;4993878;28;45487;-48
2023/04/06 08:25:54;;;;;;;;;31.33;26.00;;;;;13.61;52.86;101335.06;4993967;28;45369;-49
2023/04/06 08:28:21;;;;;;;;;25.00;20.33;;;;;13.71;54.04;101331.31;4993451;28;45792;-48
2023/04/06 08:30:46;;;;;;;;;27.00;22.00;;;;;13.74;52.03;101335.53;4993555;28;45518;-49
2023/04/06 08:33:12;;;;;;;;;26.67;26.00;;;;;13.84;54.14;101333.63;4993882;28;45382;-47
2023/04/06 08:35:37;;;;;;;;;33.67;24.00;;;;;14.01;53.37;101331.91;4993562;28;45510;-46
2023/04/06 08:38:03;;;;;;;;;30.00;24.00;;;;;14.26;53.20;101345.50;4993397;28;45923;-48
2023/04/06 08:40:28;;;;;;;;;32.67;23.67;;;;;14.45;52.69;101339.91;4991094;28;45619;-47
2023/04/06 08:43:02;;;;;;;;;28.67;23.67;;;;;14.54;52.59;101335.50;4993574;28;45493;-47
2023/04/06 08:45:27;;;;;;;;;28.33;25.67;;;;;14.54;52.44;101332.81;4993860;28;45460;-48
2023/04/06 08:47:54;;;;;;;;;26.67;22.00;;;;;14.57;52.45;101346.72;4993334;28;45853;-47
2023/04/06 08:50:20;;;;;;;;;31.00;26.67;;;;;14.42;52.63;101337.59;4993600;28;46437;-47
2023/04/06 08:52:48;;;;;;;;;26.00;24.33;;;;;14.35;51.82;101349.91;4993626;28;45467;-47
2023/04/06 08:55:14;;;;;;;;;21.00;17.00;;;;;14.24;53.07;101350.97;4994853;28;45399;-46
2023/04/06 08:57:40;;;;;;;;;27.33;25.00;;;;;14.23;52.43;101360.00;4995759;28;45829;-46
2023/04/06 09:00:09;;;;;;;;;30.00;22.33;;;;;14.18;53.13;101362.31;4996699;28;45246;-46
2023/04/06 09:02:38;;;;;;;;;28.67;25.00;;;;;14.12;53.61;101360.28;4996534;28;45463;-46
2023/04/06 09:05:04;;;;;;;;;27.33;25.67;;;;;14.09;53.84;101371.28;4996962;28;46344;-46
2023/04/06 09:07:30;;;;;;;;;34.33;26.00;;;;;14.00;53.82;101373.03;4996279;28;46189;-49
2023/04/06 09:09:56;;;;;;;;;30.33;26.00;;;;;13.92;54.01;101367.63;4996631;28;45462;-48
2023/04/06 09:12:28;;;;;;;;;43.00;25.33;;;;;13.88;54.31;101363.56;4996325;28;45460;-52
2023/04/06 09:14:55;;;;;;;;;28.00;24.67;;;;;13.81;54.28;101352.63;4996941;28;45412;-49
2023/04/06 09:17:33;;;;;;;;;27.67;24.67;;;;;13.83;54.82;101352.50;4996639;28;46158;-46
2023/04/06 09:20:02;;;;;;;;;31.00;23.00;;;;;13.90;54.37;101349.03;4995395;28;45344;-48
2023/04/06 09:22:38;;;;;;;;;26.33;24.00;;;;;13.87;54.66;101362.72;4996500;28;45491;-47
2023/04/06 09:25:05;;;;;;;;;28.33;24.67;;;;;13.85;54.75;101369.22;4996645;28;45477;-48
2023/04/06 09:27:33;;;;;;;;;24.00;19.67;;;;;13.80;54.44;101366.16;4996286;28;46061;-45
2023/04/06 09:30:13;;;;;;;;;41.00;27.33;;;;;13.73;55.63;101371.28;4996138;28;45544;-47
2023/04/06 09:32:48;;;;;;;;;25.67;19.67;;;;;13.67;55.59;101367.38;4996014;28;45372;-48
2023/04/06 09:35:15;;;;;;;;;28.33;21.00;;;;;13.46;58.00;101362.31;4996523;28;45992;-48
2023/04/06 09:37:43;;;;;;;;;31.00;26.67;;;;;13.47;56.85;101372.00;4978288;28;46808;-47
2023/04/06 09:40:09;;;;;;;;;31.33;27.33;;;;;13.46;58.00;101369.50;4995182;28;45521;-46
2023/04/06 09:42:35;;;;;;;;;31.67;23.67;;;;;13.45;57.97;101365.97;4993722;28;46290;-47
2023/04/06 09:45:01;;;;;;;;;27.33;22.33;;;;;13.43;57.70;101365.28;4996391;28;45908;-50
2023/04/06 09:47:28;;;;;;;;;23.67;23.33;;;;;13.35;57.30;101364.34;4995924;28;46193;-46
2023/04/06 09:49:57;;;;;;;;;30.00;23.67;;;;;13.41;57.34;101377.97;4995918;28;45393;-46
2023/04/06 09:52:27;;;;;;;;;27.00;19.00;;;;;13.38;57.05;101358.72;4995990;28;45421;-48
2023/04/06 09:54:56;;;;;;;;;25.33;19.33;;;;;13.41;56.77;101345.06;4996185;28;46456;-50
2023/04/06 09:57:34;;;;;;;;;23.67;19.67;;;;;13.47;57.68;101372.00;4995898;28;45500;-47
2023/04/06 10:00:12;;;;;;;;;20.67;16.33;;;;;13.52;58.09;101374.22;4995665;28;45290;-46
2023/04/06 10:02:59;;;;;;;;;14.00;14.00;;;;;13.50;58.22;101378.06;4994831;28;45545;-45
2023/04/06 10:05:42;;;;;;;;;23.33;17.00;;;;;13.46;59.36;101389.03;4996691;28;46813;-47
2023/04/06 10:08:12;;;;;;;;;19.00;14.00;;;;;13.36;59.24;101379.41;4995143;28;47049;-49
2023/04/06 10:10:38;;;;;;;;;16.33;15.00;;;;;13.34;59.64;101382.22;4995764;28;45460;-50
2023/04/06 10:13:07;;;;;;;;;17.00;15.67;;;;;13.32;59.06;101380.69;4996117;28;45508;-54
2023/04/06 10:15:33;;;;;;;;;18.00;14.33;;;;;13.40;59.24;101391.44;4995801;28;45562;-53
2023/04/06 10:18:00;;;;;;;;;16.67;11.33;;;;;13.45;59.05;101376.69;4995318;28;45620;-47
2023/04/06 10:20:46;;;;;;;;;15.00;11.33;;;;;13.48;58.67;101370.16;4995209;28;45453;-52
2023/04/06 10:23:19;;;;;;;;;19.00;17.00;;;;;13.57;58.95;101373.78;4995388;28;45414;-53
2023/04/06 10:25:56;;;;;;;;;17.67;14.00;;;;;13.67;57.97;101378.06;4995358;28;45555;-49
2023/04/06 10:28:22;;;;;;;;;17.67;16.67;;;;;13.76;58.61;101372.81;4995245;28;47155;-49
2023/04/06 10:30:47;;;;;;;;;41.00;31.50;;;;;13.93;58.36;101378.16;4995469;28;45499;-48
2023/04/06 10:33:22;;;;;;;;;46.50;37.50;;;;;13.97;57.85;101374.19;4994966;28;45357;-53
2023/04/06 10:35:47;;;;;;;;;31.33;21.67;;;;;13.93;57.99;101382.66;4995680;28;45477;-48
2023/04/06 10:38:14;;;;;;;;;23.67;18.33;;;;;13.81;58.40;101366.00;4995142;28;46218;-48
2023/04/06 10:40:41;;;;;;;;;59.50;44.00;;;;;13.93;58.45;101383.50;4998121;28;45455;-51
2023/04/06 10:43:20;;;;;;;;;26.33;22.67;;;;;14.01;57.68;101382.75;4998388;28;45401;-50
2023/04/06 10:45:55;;;;;;;;;34.67;28.67;;;;;14.09;58.05;101392.69;4998633;28;45502;-49
2023/04/06 10:48:21;;;;;;;;;29.00;20.67;;;;;14.19;57.56;101391.59;4998229;28;46207;-46
2023/04/06 10:50:49;;;;;;;;;42.67;36.33;;;;;14.30;57.67;101376.31;4998326;28;45290;-48
2023/04/06 10:53:25;;;;;;;;;15.67;13.00;;;;;14.41;57.21;101379.56;4998481;28;45503;-47
2023/04/06 10:55:54;;;;;;;;;24.33;17.00;;;;;14.60;57.15;101381.22;4998476;28;45490;-47
2023/04/06 10:58:20;;;;;;;;;31.67;26.67;;;;;14.78;56.60;101393.72;4980310;28;46259;-49
2023/04/06 11:00:49;;;;;;;;;18.00;10.33;;;;;14.84;56.57;101388.59;4998198;28;45229;-47
2023/04/06 11:03:15;;;;;;;;;20.00;16.00;;;;;15.44;55.85;101385.00;4998375;28;45419;-50
2023/04/06 11:05:51;;;;;;;;;21.00;17.67;;;;;19.18;49.88;101370.91;4998356;28;45436;-47